イエローナイフ の空港の天気 - METARとTAF

イエローナイフ空港 ( CYZF / YZF ) - カナダ ノースウエスト準州イエローナイフ
飛行場実況気象(Metar)
観測時間08/11 00:00 MDT (08/11 06:00 UTC)
風向・風速東北東 4m/s
視程10km以上
天気現象弱いしゅう雨
全天の8割程度の雲 雲底高度 1370m
全天を覆う雲 雲底高度 3050m
気温17℃
湿度83%
気圧1004hPa
METARCYZF 110600Z 06007KT 15SM -SHRA BKN045 OVC100 17/14 A2963 RMK SC7AC1 SLP040 DENSITY ALT 1400FT
過去の天気等 Google飛行場航空写真 Wunderground天気予報

過去48時間のMETAR

飛行場予報(TAF)
発表時間: 8/10 23:38 MDT (8/11 05:38 UTC)
予報対象時間: 11日0時 MDT ~ 12日0時 MDT
風向・風速不定 2m/s
視程10km以上
全天の8割程度の雲 雲底高度 1220m
11日0時 MDT ~ 11日6時 MDT に一時的に
視程10km以上
天気現象弱いしゅう雨
11日6時 MDT から
風向・風速東北東 6m/s
視程10km以上
全天の4割程度の雲 雲底高度 1830m
全天の8割程度の雲 雲底高度 5490m
11日6時 MDT ~ 11日16時 MDT に一時的に
視程10km以上
天気現象弱いしゅう雨
全天の8割程度の雲 雲底高度 1830m
11日12時 MDT ~ 11日14時 MDT に徐々に
風向・風速東 6m/s 瞬間風速 11m/s
11日16時 MDT から
風向・風速東 6m/s 瞬間風速 11m/s
視程10km以上
全天の4割程度の雲 雲底高度 1520m
11日21時 MDT から
風向・風速東南東 4m/s
視程10km以上
全天の4割程度の雲 雲底高度 1220m
全天の8割程度の雲 雲底高度 2440m
TAF CYZF 110538Z 1106/1206 VRB03KT P6SM BKN040
TEMPO 1106/1112 P6SM -SHRA
FM111200 06012KT P6SM SCT060 BKN180
TEMPO 1112/1122 P6SM -SHRA BKN060
BECMG 1118/1120 10012G22KT
FM112200 10012G22KT P6SM SCT050
FM120300 11008KT P6SM SCT040 BKN080 RMK NXT FCST BY 111200Z